Time;durP1;ratioP1;P1;durP2;ratioP2;P2;SDS_P1;SDS_P2;PMS_P1;PMS_P2;Temp;Humidity;BMP_temperature;BMP_pressure;BME280_temperature;BME280_humidity;BME280_pressure;Samples;Min_cycle;Max_cycle;Signal;HPM_P1;HPM_P2
2021/06/29 00:00:06;;;;;;;9.73;5.35;;;;;;;;;;5053634;28;20024;-50
2021/06/29 00:02:31;;;;;;;8.63;6.10;;;;;;;;;;5053673;28;20074;-47
2021/06/29 00:04:56;;;;;;;10.13;6.10;;;;;;;;;;5052242;28;20025;-48
2021/06/29 00:07:22;;;;;;;7.65;4.97;;;;;;;;;;5056666;28;20025;-45
2021/06/29 00:09:47;;;;;;;10.18;6.82;;;;;;;;;;5056691;28;20683;-47
2021/06/29 00:12:13;;;;;;;11.07;5.50;;;;;;;;;;5055473;28;20570;-46
2021/06/29 00:14:40;;;;;;;6.72;5.93;;;;;;;;;;5059362;28;20044;-46
2021/06/29 00:17:05;;;;;;;8.38;6.53;;;;;;;;;;5062366;28;20368;-47
2021/06/29 00:19:30;;;;;;;16.38;6.80;;;;;;;;;;5055209;28;20035;-45
2021/06/29 00:21:56;;;;;;;12.75;8.18;;;;;;;;;;5062166;28;20043;-46
2021/06/29 00:24:21;;;;;;;11.82;6.18;;;;;;;;;;5060649;28;20047;-47
2021/06/29 00:26:46;;;;;;;23.60;6.68;;;;;;;;;;5062437;28;20798;-48
2021/06/29 00:29:11;;;;;;;7.18;6.22;;;;;;;;;;5058877;28;20123;-47
2021/06/29 00:31:37;;;;;;;9.25;6.00;;;;;;;;;;5059516;28;20025;-47
2021/06/29 00:34:02;;;;;;;13.82;5.53;;;;;;;;;;5060994;28;20012;-45
2021/06/29 00:36:27;;;;;;;9.65;5.45;;;;;;;;;;5058039;28;20104;-46
2021/06/29 00:38:53;;;;;;;10.10;5.60;;;;;;;;;;5058311;28;20499;-48
2021/06/29 00:41:18;;;;;;;5.13;4.68;;;;;;;;;;5060208;28;20029;-47
2021/06/29 00:43:44;;;;;;;5.22;4.75;;;;;;;;;;5060319;28;20102;-45
2021/06/29 00:46:09;;;;;;;10.85;6.15;;;;;;;;;;5057216;28;20020;-45
2021/06/29 00:48:35;;;;;;;8.73;7.50;;;;;;;;;;5061047;28;20036;-48
2021/06/29 00:51:00;;;;;;;8.10;6.25;;;;;;;;;;5060333;28;20352;-45
2021/06/29 00:53:25;;;;;;;10.23;7.10;;;;;;;;;;5058270;28;20562;-47
2021/06/29 00:55:51;;;;;;;9.13;7.35;;;;;;;;;;5055815;28;20017;-47
2021/06/29 00:58:16;;;;;;;6.43;5.72;;;;;;;;;;5059532;28;20044;-45
2021/06/29 01:00:42;;;;;;;11.23;6.13;;;;;;;;;;5060520;28;20059;-45
2021/06/29 01:03:07;;;;;;;5.45;4.95;;;;;;;;;;5063819;28;20017;-47
2021/06/29 01:05:33;;;;;;;13.13;6.20;;;;;;;;;;5058592;28;20519;-44
2021/06/29 01:07:58;;;;;;;8.77;5.95;;;;;;;;;;5059747;28;20024;-44
2021/06/29 01:10:23;;;;;;;10.90;5.72;;;;;;;;;;5055101;28;20060;-46
2021/06/29 01:12:49;;;;;;;17.42;7.20;;;;;;;;;;5061706;28;20025;-45
2021/06/29 01:15:14;;;;;;;4.82;4.32;;;;;;;;;;5054735;28;20489;-46
2021/06/29 01:17:40;;;;;;;9.90;4.97;;;;;;;;;;5056718;28;20530;-45
2021/06/29 01:20:06;;;;;;;9.45;5.18;;;;;;;;;;5056108;28;20585;-46
2021/06/29 01:22:31;;;;;;;8.63;6.22;;;;;;;;;;5060567;28;20117;-45
2021/06/29 01:24:58;;;;;;;6.75;5.88;;;;;;;;;;5058704;28;20064;-45
2021/06/29 01:27:35;;;;;;;6.57;5.28;;;;;;;;;;5058045;28;20089;-47
2021/06/29 01:32:27;;;;;;;6.53;5.22;;;;;;;;;;5055257;28;20154;-46
2021/06/29 01:34:53;;;;;;;5.90;5.30;;;;;;;;;;5060454;28;20040;-45
2021/06/29 01:37:19;;;;;;;6.88;5.53;;;;;;;;;;5055182;28;20536;-47
2021/06/29 01:39:53;;;;;;;8.98;5.07;;;;;;;;;;5059631;28;20107;-45
2021/06/29 01:42:18;;;;;;;7.88;7.05;;;;;;;;;;5055038;28;20487;-46
2021/06/29 01:44:44;;;;;;;11.18;6.78;;;;;;;;;;5055695;28;20028;-47
2021/06/29 01:47:12;;;;;;;8.32;5.85;;;;;;;;;;5059892;28;20021;-47
2021/06/29 01:49:38;;;;;;;6.53;5.88;;;;;;;;;;5058581;28;20031;-47
2021/06/29 01:52:03;;;;;;;6.47;4.50;;;;;;;;;;5059647;28;20044;-46
2021/06/29 01:54:28;;;;;;;5.80;4.47;;;;;;;;;;5056579;28;20481;-45
2021/06/29 01:56:54;;;;;;;9.85;4.57;;;;;;;;;;5058135;28;20044;-46
2021/06/29 01:59:21;;;;;;;7.90;3.85;;;;;;;;;;5061887;28;20063;-47
2021/06/29 02:01:46;;;;;;;5.38;4.15;;;;;;;;;;5059292;28;20172;-45
2021/06/29 02:04:12;;;;;;;11.80;5.95;;;;;;;;;;5060038;28;20472;-44
2021/06/29 02:06:38;;;;;;;9.75;4.63;;;;;;;;;;5055471;28;20056;-46
2021/06/29 02:09:07;;;;;;;7.75;5.22;;;;;;;;;;5053253;28;20028;-44
2021/06/29 02:11:32;;;;;;;11.82;6.35;;;;;;;;;;5057342;28;20045;-45
2021/06/29 02:13:57;;;;;;;5.18;4.68;;;;;;;;;;5059279;28;20444;-45
2021/06/29 02:16:23;;;;;;;6.05;4.40;;;;;;;;;;5062761;28;20028;-50
2021/06/29 02:18:48;;;;;;;4.68;3.38;;;;;;;;;;5058131;28;20024;-49
2021/06/29 02:21:15;;;;;;;10.70;5.95;;;;;;;;;;5056917;28;20094;-49
2021/06/29 02:23:40;;;;;;;7.78;5.25;;;;;;;;;;5057093;28;20040;-47
2021/06/29 02:26:05;;;;;;;9.25;5.93;;;;;;;;;;5059200;28;20012;-48
2021/06/29 02:28:31;;;;;;;4.38;3.97;;;;;;;;;;5059898;28;20513;-48
2021/06/29 02:30:56;;;;;;;6.07;3.53;;;;;;;;;;5056259;28;20025;-47
2021/06/29 02:33:21;;;;;;;7.03;4.55;;;;;;;;;;5058781;28;20028;-48
2021/06/29 02:35:47;;;;;;;12.48;4.38;;;;;;;;;;5054901;28;20009;-48
2021/06/29 02:38:12;;;;;;;5.63;3.92;;;;;;;;;;5055632;28;20453;-48
2021/06/29 02:40:37;;;;;;;5.68;3.83;;;;;;;;;;5055193;28;20029;-46
2021/06/29 02:43:03;;;;;;;5.88;4.47;;;;;;;;;;5056409;28;20017;-48
2021/06/29 02:45:28;;;;;;;5.65;4.65;;;;;;;;;;5057489;28;20078;-50
2021/06/29 02:47:56;;;;;;;14.38;5.60;;;;;;;;;;5054308;28;20059;-50
2021/06/29 02:50:22;;;;;;;8.23;5.22;;;;;;;;;;5056189;28;20024;-45
2021/06/29 02:52:47;;;;;;;16.73;4.93;;;;;;;;;;5057069;28;20031;-48
2021/06/29 02:55:13;;;;;;;5.97;4.50;;;;;;;;;;5053617;28;20051;-48
2021/06/29 02:57:39;;;;;;;9.65;5.18;;;;;;;;;;5059146;28;20020;-49
2021/06/29 03:00:06;;;;;;;8.10;4.50;;;;;;;;;;5054215;28;20036;-50
2021/06/29 03:02:31;;;;;;;6.60;4.15;;;;;;;;;;5057378;28;20025;-49
2021/06/29 03:04:56;;;;;;;6.55;4.55;;;;;;;;;;5058397;28;20033;-49
2021/06/29 03:07:22;;;;;;;5.70;4.65;;;;;;;;;;5056860;28;20191;-48
2021/06/29 03:09:47;;;;;;;7.63;4.30;;;;;;;;;;5056425;28;20056;-48
2021/06/29 03:12:31;;;;;;;9.75;4.15;;;;;;;;;;5058550;28;20703;-48
2021/06/29 03:14:58;;;;;;;6.15;4.07;;;;;;;;;;5057498;28;20033;-47
2021/06/29 03:17:24;;;;;;;5.07;3.42;;;;;;;;;;5054211;28;20029;-45
2021/06/29 03:19:49;;;;;;;9.48;5.45;;;;;;;;;;5057542;28;20033;-49
2021/06/29 03:22:15;;;;;;;5.60;3.40;;;;;;;;;;5056991;28;20028;-49
2021/06/29 03:24:40;;;;;;;7.32;3.88;;;;;;;;;;5055600;28;20021;-50
2021/06/29 03:27:07;;;;;;;9.45;3.88;;;;;;;;;;5056816;28;20051;-49
2021/06/29 03:29:33;;;;;;;5.90;3.80;;;;;;;;;;5059256;28;20044;-47
2021/06/29 03:31:58;;;;;;;6.10;4.57;;;;;;;;;;5055223;28;20064;-47
2021/06/29 03:34:23;;;;;;;7.28;4.25;;;;;;;;;;5055057;28;20500;-47
2021/06/29 03:36:49;;;;;;;7.45;3.60;;;;;;;;;;5056467;28;20037;-45
2021/06/29 03:39:14;;;;;;;10.43;4.15;;;;;;;;;;5057064;28;20392;-44
2021/06/29 03:41:40;;;;;;;5.70;3.95;;;;;;;;;;5058415;28;20464;-47
2021/06/29 03:44:05;;;;;;;6.75;3.65;;;;;;;;;;5057531;28;20443;-47
2021/06/29 03:46:31;;;;;;;10.18;3.97;;;;;;;;;;5057597;28;20031;-46
2021/06/29 03:48:56;;;;;;;8.77;4.60;;;;;;;;;;5059623;28;20056;-48
2021/06/29 03:51:22;;;;;;;5.93;3.47;;;;;;;;;;5059061;28;20024;-45
2021/06/29 03:53:47;;;;;;;8.23;4.13;;;;;;;;;;5058465;28;20020;-46
2021/06/29 03:56:28;;;;;;;3.35;2.80;;;;;;;;;;5062183;28;20013;-49
2021/06/29 03:58:55;;;;;;;3.05;2.13;;;;;;;;;;5060254;28;20079;-45
2021/06/29 04:01:20;;;;;;;7.07;4.55;;;;;;;;;;5061084;28;20060;-49
2021/06/29 04:03:45;;;;;;;4.35;3.55;;;;;;;;;;5057806;28;20448;-48
2021/06/29 04:06:11;;;;;;;11.40;4.28;;;;;;;;;;5056822;28;20025;-46
2021/06/29 04:08:36;;;;;;;5.88;3.85;;;;;;;;;;5061286;28;20017;-46
2021/06/29 04:11:01;;;;;;;5.75;3.85;;;;;;;;;;5057890;28;20048;-48
2021/06/29 04:13:27;;;;;;;4.82;3.90;;;;;;;;;;5060641;28;20076;-47
2021/06/29 04:15:52;;;;;;;10.57;3.58;;;;;;;;;;5061327;28;20069;-47
2021/06/29 04:18:17;;;;;;;5.55;2.83;;;;;;;;;;5059792;28;20157;-46
2021/06/29 04:20:43;;;;;;;3.30;2.33;;;;;;;;;;5061397;28;20032;-46
2021/06/29 04:23:08;;;;;;;3.40;2.90;;;;;;;;;;5059153;28;20361;-48
2021/06/29 04:25:33;;;;;;;7.45;4.40;;;;;;;;;;5059753;28;20443;-47
2021/06/29 04:27:59;;;;;;;6.38;3.88;;;;;;;;;;5061492;28;20021;-46
2021/06/29 04:30:24;;;;;;;5.40;4.78;;;;;;;;;;5060089;28;20032;-47
2021/06/29 04:32:49;;;;;;;6.15;4.28;;;;;;;;;;5059117;28;20024;-45
2021/06/29 04:35:14;;;;;;;5.65;5.05;;;;;;;;;;5059653;28;20017;-48
2021/06/29 04:37:40;;;;;;;4.63;4.20;;;;;;;;;;5061646;28;20024;-45
2021/06/29 04:40:05;;;;;;;8.48;4.85;;;;;;;;;;5059788;28;20449;-45
2021/06/29 04:42:31;;;;;;;5.75;4.00;;;;;;;;;;5059927;28;20021;-48
2021/06/29 04:44:56;;;;;;;3.85;3.08;;;;;;;;;;5060123;28;20028;-46
2021/06/29 04:47:21;;;;;;;4.20;3.63;;;;;;;;;;5061128;28;20053;-44
2021/06/29 04:49:47;;;;;;;6.43;4.78;;;;;;;;;;5059489;28;20013;-47
2021/06/29 04:52:12;;;;;;;4.38;3.88;;;;;;;;;;5055811;28;20024;-45
2021/06/29 04:54:38;;;;;;;6.97;4.13;;;;;;;;;;5058092;28;20020;-46
2021/06/29 04:57:04;;;;;;;4.35;3.13;;;;;;;;;;5060231;28;20395;-45
2021/06/29 04:59:29;;;;;;;5.38;3.72;;;;;;;;;;5059336;28;20078;-45
2021/06/29 05:01:54;;;;;;;5.60;3.83;;;;;;;;;;5058408;28;20040;-49
2021/06/29 05:04:20;;;;;;;9.43;4.57;;;;;;;;;;5059727;28;20017;-45
2021/06/29 05:06:45;;;;;;;5.43;4.93;;;;;;;;;;5060411;28;20048;-48
2021/06/29 05:09:10;;;;;;;10.85;4.07;;;;;;;;;;5054345;28;20392;-47
2021/06/29 05:11:36;;;;;;;5.25;3.95;;;;;;;;;;5058026;28;20127;-51
2021/06/29 05:14:02;;;;;;;6.13;3.13;;;;;;;;;;5059198;28;20020;-51
2021/06/29 05:16:27;;;;;;;3.55;3.17;;;;;;;;;;5061474;28;20024;-46
2021/06/29 05:18:53;;;;;;;14.32;11.55;;;;;;;;;;5058785;28;20441;-50
2021/06/29 05:21:18;;;;;;;12.25;4.40;;;;;;;;;;5056179;28;20025;-46
2021/06/29 05:23:43;;;;;;;6.55;4.35;;;;;;;;;;5060189;28;20384;-46
2021/06/29 05:26:09;;;;;;;3.53;3.15;;;;;;;;;;5057846;28;20031;-47
2021/06/29 05:28:34;;;;;;;6.75;4.50;;;;;;;;;;5058988;28;20025;-45
2021/06/29 05:30:59;;;;;;;5.38;3.95;;;;;;;;;;5058417;28;20476;-45
2021/06/29 05:33:24;;;;;;;5.40;3.22;;;;;;;;;;5060944;28;20043;-45
2021/06/29 05:35:50;;;;;;;12.75;5.03;;;;;;;;;;5061327;28;20510;-49
2021/06/29 05:38:15;;;;;;;6.65;4.25;;;;;;;;;;5058699;28;20103;-48
2021/06/29 05:40:40;;;;;;;9.07;3.05;;;;;;;;;;5058795;28;20366;-47
2021/06/29 05:43:06;;;;;;;7.03;2.88;;;;;;;;;;5054942;28;20488;-49
2021/06/29 05:45:32;;;;;;;4.18;2.63;;;;;;;;;;5057833;28;20024;-48
2021/06/29 05:47:57;;;;;;;4.30;3.17;;;;;;;;;;5060985;28;20025;-46
2021/06/29 05:50:23;;;;;;;7.80;6.28;;;;;;;;;;5058810;28;20025;-47
2021/06/29 05:52:49;;;;;;;14.35;6.40;;;;;;;;;;5059015;28;20111;-47
2021/06/29 05:55:14;;;;;;;27.40;24.67;;;;;;;;;;5057747;28;20503;-46
2021/06/29 05:57:40;;;;;;;9.15;7.47;;;;;;;;;;5058723;28;20025;-47
2021/06/29 06:00:12;;;;;;;8.38;6.03;;;;;;;;;;5058968;28;20037;-46
2021/06/29 06:02:38;;;;;;;9.27;7.85;;;;;;;;;;5057172;28;20396;-49
2021/06/29 06:05:04;;;;;;;6.10;5.50;;;;;;;;;;5058507;28;20054;-49
2021/06/29 06:07:29;;;;;;;8.15;7.35;;;;;;;;;;5055275;28;20032;-45
2021/06/29 06:09:55;;;;;;;8.27;5.90;;;;;;;;;;5054871;28;20028;-49
2021/06/29 06:12:20;;;;;;;13.50;9.10;;;;;;;;;;5060364;28;20059;-48
2021/06/29 06:14:45;;;;;;;15.05;9.23;;;;;;;;;;5056683;28;20090;-45
2021/06/29 06:17:10;;;;;;;15.73;9.13;;;;;;;;;;5056354;28;20174;-46
2021/06/29 06:19:36;;;;;;;14.55;8.65;;;;;;;;;;5059587;28;20033;-45
2021/06/29 06:22:01;;;;;;;10.65;7.18;;;;;;;;;;5057836;28;20020;-47
2021/06/29 06:24:26;;;;;;;25.90;17.95;;;;;;;;;;5057871;28;20411;-48
2021/06/29 06:26:52;;;;;;;58.70;46.58;;;;;;;;;;5055782;28;20016;-47
2021/06/29 06:29:17;;;;;;;50.15;37.70;;;;;;;;;;5058551;28;20600;-57
2021/06/29 06:31:42;;;;;;;124.43;92.35;;;;;;;;;;5058057;28;20016;-57
2021/06/29 06:34:08;;;;;;;140.15;105.95;;;;;;;;;;5051055;28;20551;-57
2021/06/29 06:36:33;;;;;;;88.85;70.25;;;;;;;;;;5058057;28;20017;-56
2021/06/29 06:38:58;;;;;;;43.00;37.85;;;;;;;;;;5055850;28;20722;-56
2021/06/29 06:41:24;;;;;;;39.00;28.15;;;;;;;;;;5059177;28;20035;-57
2021/06/29 06:43:49;;;;;;;49.88;33.65;;;;;;;;;;5052058;28;20484;-57
2021/06/29 06:46:14;;;;;;;67.45;59.95;;;;;;;;;;5053275;28;20073;-56
2021/06/29 06:48:42;;;;;;;50.20;43.53;;;;;;;;;;5055409;28;20033;-56
2021/06/29 06:51:07;;;;;;;19.80;11.20;;;;;;;;;;5056788;28;20437;-57
2021/06/29 06:53:33;;;;;;;26.17;21.27;;;;;;;;;;5054670;28;20021;-57
2021/06/29 06:55:58;;;;;;;138.85;88.50;;;;;;;;;;5052679;28;20077;-57
2021/06/29 06:58:25;;;;;;;51.33;35.97;;;;;;;;;;5058328;28;20494;-56
2021/06/29 07:00:51;;;;;;;17.33;9.75;;;;;;;;;;5057469;28;20024;-56
2021/06/29 07:03:16;;;;;;;17.45;6.93;;;;;;;;;;5058349;28;20023;-56
2021/06/29 07:05:42;;;;;;;5.20;3.72;;;;;;;;;;5055729;28;20431;-56
2021/06/29 07:08:09;;;;;;;7.15;4.63;;;;;;;;;;5056139;28;20029;-56
2021/06/29 07:10:35;;;;;;;12.40;4.57;;;;;;;;;;5055697;28;20053;-56
2021/06/29 07:13:00;;;;;;;12.82;4.82;;;;;;;;;;5053627;28;20094;-56
2021/06/29 07:15:28;;;;;;;8.07;5.50;;;;;;;;;;5057220;28;20012;-57
2021/06/29 07:17:53;;;;;;;55.63;10.15;;;;;;;;;;5053643;28;20112;-56
2021/06/29 07:20:19;;;;;;;17.23;6.82;;;;;;;;;;5057212;28;20426;-57
2021/06/29 07:22:44;;;;;;;7.95;4.40;;;;;;;;;;5055488;28;20440;-57
2021/06/29 07:25:10;;;;;;;10.60;5.53;;;;;;;;;;5058933;28;20029;-56
2021/06/29 07:27:36;;;;;;;8.88;5.68;;;;;;;;;;5057809;28;20495;-55
2021/06/29 07:30:05;;;;;;;6.95;4.57;;;;;;;;;;5057101;28;20033;-56
2021/06/29 07:32:30;;;;;;;5.82;4.30;;;;;;;;;;5056372;28;20055;-56
2021/06/29 07:34:56;;;;;;;11.30;6.57;;;;;;;;;;5056571;28;20044;-56
2021/06/29 07:37:21;;;;;;;13.57;5.75;;;;;;;;;;5053266;28;20415;-55
2021/06/29 07:39:46;;;;;;;10.15;5.20;;;;;;;;;;5055980;28;20473;-55
2021/06/29 07:42:12;;;;;;;21.00;7.43;;;;;;;;;;5057367;28;20021;-57
2021/06/29 07:44:37;;;;;;;15.82;9.32;;;;;;;;;;5057369;28;20028;-56
2021/06/29 07:47:02;;;;;;;8.93;6.22;;;;;;;;;;5059874;28;20020;-58
2021/06/29 07:49:28;;;;;;;6.43;4.38;;;;;;;;;;5060216;28;20027;-55
2021/06/29 07:51:53;;;;;;;13.32;5.97;;;;;;;;;;5053926;28;20513;-57
2021/06/29 07:54:19;;;;;;;10.93;6.38;;;;;;;;;;5053201;28;20029;-56
2021/06/29 07:56:44;;;;;;;9.10;4.88;;;;;;;;;;5054768;28;20114;-57
2021/06/29 07:59:09;;;;;;;5.53;4.72;;;;;;;;;;5053099;28;20029;-58
2021/06/29 08:01:35;;;;;;;14.02;5.80;;;;;;;;;;5057062;28;20025;-57
2021/06/29 08:04:00;;;;;;;10.45;5.68;;;;;;;;;;5057983;28;20108;-57
2021/06/29 08:06:25;;;;;;;6.25;4.63;;;;;;;;;;5058706;28;20603;-57
2021/06/29 08:08:51;;;;;;;9.70;4.95;;;;;;;;;;5055865;28;20028;-56
2021/06/29 08:11:16;;;;;;;5.78;4.70;;;;;;;;;;5058180;28;20048;-57
2021/06/29 08:13:42;;;;;;;6.38;5.05;;;;;;;;;;5055757;28;20024;-57
2021/06/29 08:16:07;;;;;;;5.63;4.78;;;;;;;;;;5056365;28;20477;-57
2021/06/29 08:18:34;;;;;;;8.95;5.15;;;;;;;;;;5056355;28;20526;-55
2021/06/29 08:21:00;;;;;;;4.90;3.47;;;;;;;;;;5058686;28;20024;-57
2021/06/29 08:23:25;;;;;;;5.20;2.97;;;;;;;;;;5054159;28;20025;-57
2021/06/29 08:25:51;;;;;;;4.80;3.28;;;;;;;;;;5053938;28;20107;-57
2021/06/29 08:28:16;;;;;;;6.13;4.03;;;;;;;;;;5056174;28;20395;-57
2021/06/29 08:30:42;;;;;;;7.05;6.35;;;;;;;;;;5056808;28;20017;-53
2021/06/29 08:33:11;;;;;;;7.88;4.93;;;;;;;;;;5056050;28;20130;-57
2021/06/29 08:35:40;;;;;;;14.25;4.03;;;;;;;;;;5054789;28;20042;-57
2021/06/29 08:38:06;;;;;;;5.78;3.70;;;;;;;;;;5054401;28;20626;-58
2021/06/29 08:40:34;;;;;;;8.07;3.97;;;;;;;;;;5059186;28;20033;-57
2021/06/29 08:42:59;;;;;;;6.70;3.30;;;;;;;;;;5040681;28;20051;-56
2021/06/29 08:45:25;;;;;;;5.07;3.42;;;;;;;;;;5056835;28;20102;-56
2021/06/29 08:47:50;;;;;;;10.25;4.80;;;;;;;;;;5059425;28;20025;-56
2021/06/29 08:50:16;;;;;;;7.90;3.85;;;;;;;;;;5060308;28;20025;-55
2021/06/29 08:52:42;;;;;;;6.30;3.45;;;;;;;;;;5059057;28;20032;-46
2021/06/29 08:55:08;;;;;;;3.33;1.98;;;;;;;;;;5058469;28;20013;-49
2021/06/29 08:57:34;;;;;;;3.25;2.20;;;;;;;;;;5058974;28;20016;-50
2021/06/29 09:00:00;;;;;;;17.13;3.85;;;;;;;;;;5062109;28;20082;-57
2021/06/29 09:02:25;;;;;;;5.63;2.60;;;;;;;;;;5057382;28;20041;-57
2021/06/29 09:04:54;;;;;;;5.80;3.03;;;;;;;;;;5057344;28;20704;-57
2021/06/29 09:07:27;;;;;;;2.92;1.95;;;;;;;;;;5057715;28;20044;-57
2021/06/29 09:09:54;;;;;;;4.93;2.97;;;;;;;;;;5059447;28;20104;-57
2021/06/29 09:12:38;;;;;;;3.13;2.40;;;;;;;;;;5057056;28;20084;-57
2021/06/29 09:15:20;;;;;;;5.55;2.38;;;;;;;;;;5059545;28;20025;-57
2021/06/29 09:17:46;;;;;;;4.88;3.03;;;;;;;;;;5057450;28;20086;-56
2021/06/29 09:20:11;;;;;;;8.60;2.55;;;;;;;;;;5060477;28;20033;-57
2021/06/29 09:22:37;;;;;;;13.25;1.70;;;;;;;;;;5058750;28;20178;-66
2021/06/29 09:25:02;;;;;;;8.07;1.85;;;;;;;;;;5059650;28;20028;-66
2021/06/29 09:27:41;;;;;;;6.00;2.60;;;;;;;;;;5059091;28;20032;-65
2021/06/29 09:30:26;;;;;;;14.25;3.53;;;;;;;;;;5055225;28;20479;-65
2021/06/29 09:32:52;;;;;;;3.05;2.60;;;;;;;;;;5054742;28;20476;-65
2021/06/29 09:35:17;;;;;;;9.82;3.53;;;;;;;;;;5058214;28;20028;-65
2021/06/29 09:37:46;;;;;;;7.35;3.08;;;;;;;;;;5057453;28;20029;-57
2021/06/29 09:40:12;;;;;;;28.83;3.47;;;;;;;;;;5056989;28;20448;-57
2021/06/29 09:42:38;;;;;;;3.72;2.17;;;;;;;;;;5057480;28;20131;-57
2021/06/29 09:45:04;;;;;;;3.78;2.47;;;;;;;;;;5060245;28;20027;-57
2021/06/29 09:47:29;;;;;;;3.85;2.30;;;;;;;;;;5059461;28;20017;-55
2021/06/29 09:49:56;;;;;;;8.63;3.90;;;;;;;;;;5056355;28;20074;-56
2021/06/29 09:52:32;;;;;;;7.35;3.53;;;;;;;;;;5058545;28;20314;-57
2021/06/29 09:54:58;;;;;;;3.78;2.60;;;;;;;;;;5058956;28;20021;-57
2021/06/29 09:57:24;;;;;;;6.15;2.95;;;;;;;;;;5058708;28;20028;-56
2021/06/29 09:59:49;;;;;;;2.85;1.27;;;;;;;;;;5059245;28;20024;-57
2021/06/29 10:02:28;;;;;;;2.55;1.80;;;;;;;;;;5057606;28;20665;-57
2021/06/29 10:05:13;;;;;;;9.23;2.28;;;;;;;;;;5056985;28;20024;-56
2021/06/29 10:07:39;;;;;;;4.70;2.70;;;;;;;;;;5057225;28;20032;-56
2021/06/29 10:10:14;;;;;;;9.32;4.95;;;;;;;;;;5062013;28;20028;-56
2021/06/29 10:12:40;;;;;;;4.88;2.65;;;;;;;;;;5057900;28;20059;-57
2021/06/29 10:15:05;;;;;;;3.22;2.67;;;;;;;;;;5056324;28;20652;-55
2021/06/29 10:17:31;;;;;;;7.38;2.78;;;;;;;;;;5057748;28;20037;-56
2021/06/29 10:22:41;;;;;;;11.18;2.42;;;;;;;;;;5057119;28;20105;-56
2021/06/29 10:25:06;;;;;;;3.53;2.25;;;;;;;;;;5056392;28;20091;-56
2021/06/29 10:27:32;;;;;;;214.57;42.83;;;;;;;;;;5059671;28;20392;-56
2021/06/29 10:29:58;;;;;;;10.88;3.30;;;;;;;;;;5058517;28;20079;-56
2021/06/29 10:32:29;;;;;;;19.33;3.30;;;;;;;;;;5058042;28;20023;-56
2021/06/29 10:34:54;;;;;;;6.10;2.80;;;;;;;;;;5054708;28;20098;-55
2021/06/29 10:37:20;;;;;;;18.10;3.30;;;;;;;;;;5053214;28;20586;-57
2021/06/29 10:39:45;;;;;;;2.20;1.63;;;;;;;;;;5056146;28;20525;-56
2021/06/29 10:42:13;;;;;;;7.50;2.65;;;;;;;;;;5059160;28;20017;-57
2021/06/29 10:44:39;;;;;;;3.90;2.13;;;;;;;;;;5060413;28;20031;-56
2021/06/29 10:47:18;;;;;;;4.00;2.03;;;;;;;;;;5055388;28;20330;-56
2021/06/29 10:49:47;;;;;;;3.58;2.20;;;;;;;;;;5056762;28;20044;-56
2021/06/29 10:52:31;;;;;;;5.75;2.75;;;;;;;;;;5053898;28;20486;-57
2021/06/29 10:55:01;;;;;;;10.65;2.78;;;;;;;;;;5055495;28;20040;-56
2021/06/29 10:57:46;;;;;;;3.65;1.73;;;;;;;;;;5055559;28;20021;-55
2021/06/29 11:00:17;;;;;;;4.43;2.05;;;;;;;;;;5057218;28;20028;-44
2021/06/29 11:02:57;;;;;;;10.30;2.65;;;;;;;;;;5057588;28;20069;-56
2021/06/29 11:05:34;;;;;;;5.07;2.47;;;;;;;;;;5051919;28;20077;-56
2021/06/29 11:08:15;;;;;;;11.27;2.38;;;;;;;;;;5054910;28;20017;-57
2021/06/29 11:10:47;;;;;;;13.57;11.02;;;;;;;;;;5056809;28;20508;-56
2021/06/29 11:13:13;;;;;;;10.13;3.90;;;;;;;;;;5058824;28;20032;-56
2021/06/29 11:15:43;;;;;;;4.22;2.80;;;;;;;;;;5058529;28;20065;-57
2021/06/29 11:18:09;;;;;;;1.52;1.17;;;;;;;;;;5056504;28;20612;-46
2021/06/29 11:20:39;;;;;;;5.65;2.78;;;;;;;;;;5056459;28;20024;-57
2021/06/29 11:23:10;;;;;;;7.07;3.00;;;;;;;;;;5057226;28;20032;-51
2021/06/29 11:25:41;;;;;;;10.88;1.95;;;;;;;;;;5058548;28;20108;-58
2021/06/29 11:28:09;;;;;;;10.60;2.75;;;;;;;;;;5057252;28;20028;-57
2021/06/29 11:30:50;;;;;;;15.88;2.40;;;;;;;;;;5058604;28;20028;-57
2021/06/29 11:33:34;;;;;;;6.45;4.00;;;;;;;;;;5054970;28;20093;-57
2021/06/29 11:35:59;;;;;;;6.97;3.47;;;;;;;;;;5058548;28;20026;-58
2021/06/29 11:38:37;;;;;;;1.90;1.23;;;;;;;;;;5053794;28;20029;-57
2021/06/29 11:41:38;;;;;;;5.78;3.28;;;;;;;;;;5056524;28;20495;-57
2021/06/29 11:44:06;;;;;;;4.93;2.30;;;;;;;;;;4989030;28;20049;-56
2021/06/29 11:46:54;;;;;;;5.45;2.95;;;;;;;;;;5040774;28;20036;-56
2021/06/29 11:49:29;;;;;;;9.27;2.40;;;;;;;;;;5055791;28;20028;-56
2021/06/29 11:51:59;;;;;;;9.25;2.10;;;;;;;;;;5054104;28;20354;-57
2021/06/29 11:54:38;;;;;;;15.50;2.57;;;;;;;;;;5056517;28;20042;-50
2021/06/29 11:57:16;;;;;;;7.35;3.70;;;;;;;;;;5055336;28;20017;-48
2021/06/29 11:59:41;;;;;;;6.15;3.15;;;;;;;;;;5053974;28;20025;-50
2021/06/29 12:02:07;;;;;;;9.20;2.03;;;;;;;;;;5058517;28;20036;-48
2021/06/29 12:04:33;;;;;;;3.22;1.63;;;;;;;;;;5056702;28;20058;-48
2021/06/29 12:06:59;;;;;;;4.47;2.28;;;;;;;;;;5056489;28;20025;-48
2021/06/29 12:09:28;;;;;;;3.55;1.40;;;;;;;;;;5061113;28;20105;-50
2021/06/29 12:12:12;;;;;;;8.38;1.75;;;;;;;;;;5056746;28;20535;-49
2021/06/29 12:14:38;;;;;;;4.15;1.67;;;;;;;;;;5061735;28;20013;-47
2021/06/29 12:17:03;;;;;;;6.85;1.48;;;;;;;;;;5060037;28;20023;-46
2021/06/29 12:19:28;;;;;;;6.43;2.28;;;;;;;;;;5058119;28;20024;-48
2021/06/29 12:21:54;;;;;;;3.53;1.92;;;;;;;;;;5061543;28;20077;-47
2021/06/29 12:24:19;;;;;;;4.05;2.33;;;;;;;;;;5056673;28;20040;-48
2021/06/29 12:26:45;;;;;;;17.13;3.40;;;;;;;;;;5057058;28;20472;-48
2021/06/29 12:29:10;;;;;;;6.22;2.03;;;;;;;;;;5061685;28;20511;-49
2021/06/29 12:31:35;;;;;;;9.50;3.13;;;;;;;;;;5059023;28;20028;-49
2021/06/29 12:34:01;;;;;;;5.28;2.53;;;;;;;;;;5059758;28;20089;-50
2021/06/29 12:36:26;;;;;;;9.55;4.78;;;;;;;;;;5056746;28;20300;-48
2021/06/29 12:38:53;;;;;;;5.35;3.28;;;;;;;;;;5058948;28;20127;-47
2021/06/29 12:41:21;;;;;;;4.93;2.20;;;;;;;;;;5059788;28;20043;-51
2021/06/29 12:43:48;;;;;;;5.20;2.00;;;;;;;;;;5056765;28;20076;-49
2021/06/29 12:46:21;;;;;;;2.47;2.00;;;;;;;;;;5055621;28;20488;-49
2021/06/29 12:48:55;;;;;;;6.43;1.83;;;;;;;;;;5058297;28;20625;-49
2021/06/29 12:51:20;;;;;;;6.95;2.70;;;;;;;;;;5060035;28;20512;-51
2021/06/29 12:53:56;;;;;;;19.20;2.05;;;;;;;;;;5065084;28;20133;-51
2021/06/29 12:56:21;;;;;;;5.63;2.15;;;;;;;;;;5057916;28;20055;-47
2021/06/29 12:58:48;;;;;;;4.95;2.17;;;;;;;;;;5059419;28;20063;-46
2021/06/29 13:01:13;;;;;;;6.25;1.75;;;;;;;;;;5057349;28;20036;-47
2021/06/29 13:03:40;;;;;;;1.83;0.75;;;;;;;;;;5060044;28;20024;-50
2021/06/29 13:06:07;;;;;;;4.10;2.13;;;;;;;;;;5055614;28;20023;-46
2021/06/29 13:08:32;;;;;;;6.90;1.95;;;;;;;;;;5057821;28;20020;-48
2021/06/29 13:11:07;;;;;;;3.22;1.65;;;;;;;;;;5059886;28;20504;-49
2021/06/29 13:13:32;;;;;;;3.38;1.48;;;;;;;;;;5057806;28;20028;-50
2021/06/29 13:15:58;;;;;;;5.32;2.50;;;;;;;;;;5058418;28;20021;-47
2021/06/29 13:18:36;;;;;;;3.50;1.73;;;;;;;;;;5056245;28;20021;-47
2021/06/29 13:21:17;;;;;;;4.95;2.28;;;;;;;;;;5058752;28;20021;-49
2021/06/29 13:23:55;;;;;;;2.92;1.75;;;;;;;;;;5056077;28;20028;-47
2021/06/29 13:26:21;;;;;;;12.48;1.95;;;;;;;;;;5056721;28;20017;-47
2021/06/29 13:28:46;;;;;;;13.68;3.10;;;;;;;;;;5056917;28;20089;-50
2021/06/29 13:31:11;;;;;;;4.75;2.55;;;;;;;;;;5059448;28;20086;-47
2021/06/29 13:33:37;;;;;;;7.80;5.38;;;;;;;;;;5056115;28;20055;-48
2021/06/29 13:36:03;;;;;;;5.10;2.67;;;;;;;;;;5058195;28;20399;-45
2021/06/29 13:38:28;;;;;;;2.88;2.05;;;;;;;;;;5059245;28;20024;-48
2021/06/29 13:40:55;;;;;;;9.20;2.47;;;;;;;;;;5058845;28;20056;-49
2021/06/29 13:43:23;;;;;;;4.40;4.00;;;;;;;;;;5056947;28;20061;-49
2021/06/29 13:45:56;;;;;;;3.55;2.42;;;;;;;;;;5056003;28;20028;-48
2021/06/29 13:48:32;;;;;;;4.80;2.47;;;;;;;;;;5054204;28;20698;-49
2021/06/29 13:50:58;;;;;;;2.88;0.98;;;;;;;;;;5058599;28;20025;-51
2021/06/29 13:53:26;;;;;;;3.58;1.55;;;;;;;;;;5056919;28;20690;-49
2021/06/29 13:55:53;;;;;;;16.05;1.90;;;;;;;;;;5057497;28;20805;-52
2021/06/29 13:58:27;;;;;;;5.05;2.63;;;;;;;;;;5056992;28;20482;-52
2021/06/29 14:00:57;;;;;;;1.38;0.95;;;;;;;;;;5060400;28;20021;-48
2021/06/29 14:03:24;;;;;;;2.30;1.70;;;;;;;;;;5056143;28;20020;-47
2021/06/29 14:05:50;;;;;;;5.30;1.90;;;;;;;;;;5061435;28;20056;-50
2021/06/29 14:08:17;;;;;;;2.63;1.70;;;;;;;;;;5059186;28;20055;-52
2021/06/29 14:10:43;;;;;;;12.30;2.45;;;;;;;;;;5058674;28;20063;-49
2021/06/29 14:13:09;;;;;;;16.33;9.95;;;;;;;;;;5058165;28;20024;-51
2021/06/29 14:15:35;;;;;;;4.35;3.30;;;;;;;;;;5056578;28;20024;-52
2021/06/29 14:18:00;;;;;;;10.60;1.98;;;;;;;;;;5058073;28;20017;-52
2021/06/29 14:20:25;;;;;;;5.53;2.65;;;;;;;;;;5055727;28;20188;-57
2021/06/29 14:22:53;;;;;;;7.45;3.05;;;;;;;;;;5059536;28;20106;-56
2021/06/29 14:25:18;;;;;;;4.00;1.70;;;;;;;;;;5057676;28;20030;-57
2021/06/29 14:27:49;;;;;;;10.68;3.40;;;;;;;;;;5056990;28;20024;-56
2021/06/29 14:30:15;;;;;;;8.60;2.65;;;;;;;;;;5057509;28;20377;-55
2021/06/29 14:32:40;;;;;;;11.20;2.88;;;;;;;;;;5057068;28;20480;-57
2021/06/29 14:35:08;;;;;;;4.32;2.13;;;;;;;;;;5062029;28;20040;-57
2021/06/29 14:37:33;;;;;;;10.00;2.10;;;;;;;;;;5055000;28;20476;-56
2021/06/29 14:39:58;;;;;;;4.95;1.98;;;;;;;;;;5058460;28;20040;-56
2021/06/29 14:42:25;;;;;;;4.90;2.13;;;;;;;;;;5058258;28;20104;-56